createdAt,value
2022-09-12T00:01:27.595Z,1.50
2022-09-12T00:03:58.695Z,1.40
2022-09-12T00:06:37.350Z,1.40
2022-09-12T00:09:08.912Z,1.30
2022-09-12T00:11:38.914Z,1.20
2022-09-12T00:14:09.033Z,1.30
2022-09-12T00:16:38.007Z,1.20
2022-09-12T00:19:07.939Z,1.30
2022-09-12T00:21:38.402Z,1.40
2022-09-12T00:24:06.853Z,1.40
2022-09-12T00:26:35.536Z,1.40
2022-09-12T00:29:04.629Z,1.40
2022-09-12T00:31:33.356Z,1.60
2022-09-12T00:34:02.516Z,1.80
2022-09-12T00:36:31.000Z,2.20
2022-09-12T00:38:59.682Z,1.90
2022-09-12T00:41:30.114Z,1.50
2022-09-12T00:44:22.962Z,1.10
2022-09-12T00:47:19.501Z,1.20
2022-09-12T00:49:50.036Z,1.60
2022-09-12T00:52:25.503Z,2.40
2022-09-12T00:55:08.090Z,1.40
2022-09-12T00:57:42.433Z,1.20
2022-09-12T01:00:16.410Z,1.20
2022-09-12T01:02:49.303Z,1.50
2022-09-12T01:05:18.090Z,1.20
2022-09-12T01:07:49.131Z,1.20
2022-09-12T01:10:18.025Z,1.00
2022-09-12T01:12:46.811Z,1.20
2022-09-12T01:15:15.190Z,1.20
2022-09-12T01:17:50.232Z,1.10
2022-09-12T01:20:50.167Z,1.30
2022-09-12T01:23:29.791Z,1.40
2022-09-12T01:26:09.534Z,1.40
2022-09-12T01:29:13.037Z,1.30
2022-09-12T01:31:56.615Z,1.50
2022-09-12T01:34:30.825Z,1.50
2022-09-12T01:37:11.962Z,1.50
2022-09-12T01:39:46.111Z,2.60
2022-09-12T01:42:35.185Z,1.60
2022-09-12T01:45:12.122Z,1.30
2022-09-12T01:47:44.905Z,1.60
2022-09-12T01:50:27.418Z,1.40
2022-09-12T01:53:02.351Z,1.80
2022-09-12T01:55:34.973Z,1.50
2022-09-12T01:58:14.879Z,2.00
2022-09-12T02:00:50.072Z,2.00
2022-09-12T02:03:24.269Z,2.60
2022-09-12T02:05:58.341Z,2.20
2022-09-12T02:08:32.256Z,1.70
2022-09-12T02:11:07.567Z,1.40
2022-09-12T02:13:46.626Z,1.50
2022-09-12T02:16:40.427Z,1.80
2022-09-12T02:19:16.251Z,1.80
2022-09-12T02:21:54.683Z,2.10
2022-09-12T02:24:30.367Z,1.90
2022-09-12T02:27:05.432Z,1.60
2022-09-12T02:29:33.624Z,1.40
2022-09-12T02:32:10.201Z,1.40
2022-09-12T02:34:44.208Z,1.40
2022-09-12T02:37:18.541Z,1.40
2022-09-12T02:39:47.254Z,1.50
2022-09-12T02:42:15.391Z,1.50
2022-09-12T02:44:43.507Z,1.50
2022-09-12T02:47:21.776Z,1.30
2022-09-12T02:49:49.841Z,1.60
2022-09-12T02:52:18.630Z,1.50
2022-09-12T02:54:48.039Z,1.70
2022-09-12T02:57:23.029Z,1.50
2022-09-12T02:59:59.421Z,1.60
2022-09-12T03:03:21.882Z,1.70
2022-09-12T03:05:56.517Z,1.80
2022-09-12T03:08:30.211Z,2.20
2022-09-12T03:11:16.662Z,2.10
2022-09-12T03:14:06.166Z,2.50
2022-09-12T03:16:37.177Z,2.50
2022-09-12T03:19:16.771Z,2.50
2022-09-12T03:22:23.554Z,2.20
2022-09-12T03:24:58.525Z,1.80
2022-09-12T03:27:31.878Z,2.00
2022-09-12T03:30:00.956Z,2.30
2022-09-12T03:32:46.682Z,2.80
2022-09-12T03:35:19.846Z,2.30
2022-09-12T03:37:52.733Z,2.30
2022-09-12T03:40:21.218Z,2.10
2022-09-12T03:42:49.165Z,2.30
2022-09-12T03:45:17.257Z,2.20
2022-09-12T03:47:45.543Z,2.30
2022-09-12T03:50:13.606Z,2.70
2022-09-12T03:52:41.786Z,2.40
2022-09-12T03:55:10.365Z,2.30
2022-09-12T03:57:38.642Z,2.30
2022-09-12T04:00:08.744Z,2.40
2022-09-12T04:02:43.599Z,2.40
2022-09-12T04:05:11.764Z,2.20
2022-09-12T04:07:39.836Z,2.30
2022-09-12T04:10:09.610Z,2.10
2022-09-12T04:12:39.685Z,2.50
2022-09-12T04:15:08.967Z,2.60
2022-09-12T04:17:37.036Z,2.90
2022-09-12T04:20:05.750Z,2.10
2022-09-12T04:22:34.003Z,2.30
2022-09-12T04:25:02.896Z,2.50
2022-09-12T04:27:31.074Z,2.50
2022-09-12T04:30:00.677Z,2.10
2022-09-12T04:32:31.515Z,1.90
2022-09-12T04:34:59.708Z,2.00
2022-09-12T04:37:28.061Z,2.70
2022-09-12T04:39:58.041Z,3.10
2022-09-12T04:42:26.346Z,2.20
2022-09-12T04:44:54.854Z,2.20
2022-09-12T04:47:23.323Z,2.30
2022-09-12T04:49:51.520Z,2.10
2022-09-12T04:52:20.047Z,2.70
2022-09-12T04:54:48.560Z,3.60
2022-09-12T04:57:16.630Z,2.80
2022-09-12T04:59:44.703Z,3.10
2022-09-12T05:02:12.694Z,3.60
2022-09-12T05:04:40.863Z,2.90
2022-09-12T05:07:09.024Z,3.00
2022-09-12T05:09:37.094Z,2.90
2022-09-12T05:12:06.023Z,4.00
2022-09-12T05:14:35.185Z,2.90
2022-09-12T05:17:06.057Z,2.90
2022-09-12T05:19:34.101Z,2.80
2022-09-12T05:22:02.679Z,2.40
2022-09-12T05:24:30.956Z,2.20
2022-09-12T05:26:59.641Z,3.00
2022-09-12T05:29:27.918Z,3.40
2022-09-12T05:31:55.990Z,2.20
2022-09-12T05:34:24.502Z,2.50
2022-09-12T05:36:52.645Z,2.30
2022-09-12T05:39:21.123Z,2.30
2022-09-12T05:41:49.094Z,3.10
2022-09-12T05:44:17.271Z,2.50
2022-09-12T05:46:48.611Z,2.00
2022-09-12T05:49:16.944Z,2.50
2022-09-12T05:51:45.963Z,2.40
2022-09-12T05:54:21.002Z,2.70
2022-09-12T05:56:49.407Z,2.90
2022-09-12T05:59:21.673Z,3.50
2022-09-12T06:01:49.827Z,3.50
2022-09-12T06:04:18.528Z,3.00
2022-09-12T06:06:47.036Z,3.40
2022-09-12T06:09:16.914Z,2.90
2022-09-12T06:11:46.807Z,2.70
2022-09-12T06:14:17.885Z,3.10
2022-09-12T06:16:47.594Z,2.30
2022-09-12T06:19:19.153Z,2.90
2022-09-12T06:21:49.833Z,2.50
2022-09-12T06:24:19.242Z,2.80
2022-09-12T06:26:48.932Z,2.70
2022-09-12T06:29:17.175Z,2.70
2022-09-12T06:31:45.959Z,2.80
2022-09-12T06:34:15.977Z,3.10
2022-09-12T06:36:49.064Z,3.10
2022-09-12T06:39:22.869Z,3.10
2022-09-12T06:41:52.278Z,2.70
2022-09-12T06:44:30.071Z,2.60
2022-09-12T06:46:58.967Z,2.80
2022-09-12T06:49:27.039Z,2.70
2022-09-12T06:51:55.207Z,3.00
2022-09-12T06:54:23.694Z,2.50
2022-09-12T06:56:51.760Z,2.90
2022-09-12T06:59:20.245Z,2.90
2022-09-12T07:01:48.609Z,2.90
2022-09-12T07:04:16.905Z,3.00
2022-09-12T07:06:45.177Z,2.80
2022-09-12T07:09:18.113Z,3.00
2022-09-12T07:11:46.849Z,2.70
2022-09-12T07:14:15.535Z,2.70
2022-09-12T07:16:43.905Z,2.80
2022-09-12T07:19:12.394Z,3.00
2022-09-12T07:21:41.007Z,2.80
2022-09-12T07:24:11.102Z,2.90
2022-09-12T07:26:42.456Z,3.30
2022-09-12T07:29:36.484Z,2.50
2022-09-12T07:32:06.757Z,2.60
2022-09-12T07:34:35.537Z,2.50
2022-09-12T07:37:04.329Z,2.60
2022-09-12T07:39:32.768Z,2.60
2022-09-12T07:42:01.187Z,2.50
2022-09-12T07:44:31.104Z,2.40
2022-09-12T07:46:58.997Z,2.90
2022-09-12T07:49:27.038Z,2.50
2022-09-12T07:51:55.111Z,2.80
2022-09-12T07:54:23.388Z,2.50
2022-09-12T07:56:51.913Z,2.50
2022-09-12T07:59:41.476Z,2.30
2022-09-12T08:02:17.133Z,2.30
2022-09-12T08:04:48.111Z,2.40
2022-09-12T08:07:16.414Z,2.30
2022-09-12T08:09:44.484Z,2.10
2022-09-12T08:12:12.759Z,2.40
2022-09-12T08:14:40.838Z,2.20
2022-09-12T08:17:09.005Z,2.10
2022-09-12T08:19:37.280Z,2.50
2022-09-12T08:22:06.070Z,2.50
2022-09-12T08:24:34.348Z,2.20
2022-09-12T08:27:02.520Z,2.10
2022-09-12T08:29:30.695Z,2.10
2022-09-12T08:31:58.976Z,1.90
2022-09-12T08:34:26.956Z,1.80
2022-09-12T08:36:55.218Z,2.00
2022-09-12T08:39:24.722Z,1.90
2022-09-12T08:42:03.702Z,1.60
2022-09-12T08:44:54.545Z,1.80
2022-09-12T08:47:27.037Z,2.40
2022-09-12T08:50:10.070Z,2.10
2022-09-12T08:53:03.632Z,2.10
2022-09-12T08:55:49.408Z,1.90
2022-09-12T08:58:20.358Z,2.60
2022-09-12T09:00:59.690Z,1.70
2022-09-12T09:03:45.649Z,1.60
2022-09-12T09:06:27.062Z,1.90
2022-09-12T09:09:24.527Z,2.10
2022-09-12T09:12:36.933Z,2.40
2022-09-12T09:15:10.380Z,1.70
2022-09-12T09:17:50.182Z,2.00
2022-09-12T09:20:34.329Z,1.70
2022-09-12T09:23:05.570Z,1.90
2022-09-12T09:25:45.939Z,2.10
2022-09-12T09:28:19.382Z,1.80
2022-09-12T09:30:47.474Z,1.70
2022-09-12T09:33:23.107Z,2.00
2022-09-12T09:36:06.085Z,2.20
2022-09-12T09:38:50.566Z,1.90
2022-09-12T09:41:41.638Z,1.30
2022-09-12T09:44:10.638Z,1.50
2022-09-12T09:46:38.864Z,1.90
2022-09-12T09:49:12.414Z,1.20
2022-09-12T09:51:42.938Z,1.30
2022-09-12T09:54:22.684Z,1.30
2022-09-12T09:56:50.858Z,2.00
2022-09-12T09:59:26.439Z,1.90
2022-09-12T10:02:24.364Z,1.70
2022-09-12T10:04:56.205Z,1.70
2022-09-12T10:07:26.236Z,1.60
2022-09-12T10:10:23.509Z,1.40
2022-09-12T10:13:06.737Z,1.80
2022-09-12T10:15:35.059Z,1.90
2022-09-12T10:18:03.908Z,2.60
2022-09-12T10:20:43.043Z,2.00
2022-09-12T10:23:37.891Z,2.10
2022-09-12T10:26:13.896Z,2.40
2022-09-12T10:28:45.581Z,1.80
2022-09-12T10:31:29.156Z,1.60
2022-09-12T10:34:01.157Z,1.40
2022-09-12T10:36:40.946Z,1.70
2022-09-12T10:39:18.798Z,1.60
2022-09-12T10:41:47.493Z,1.60
2022-09-12T10:44:26.335Z,1.80
2022-09-12T10:46:55.301Z,1.70
2022-09-12T10:49:38.216Z,1.70
2022-09-12T10:52:36.704Z,1.70
2022-09-12T10:55:12.257Z,1.50
2022-09-12T10:57:49.334Z,2.10
2022-09-12T11:00:25.911Z,1.50
2022-09-12T11:03:07.186Z,1.70
2022-09-12T11:05:48.166Z,2.50
2022-09-12T11:08:22.309Z,2.40
2022-09-12T11:11:00.275Z,2.20
2022-09-12T11:13:52.619Z,2.60
2022-09-12T11:16:43.077Z,2.50
2022-09-12T11:19:43.017Z,1.90
2022-09-12T11:22:22.785Z,1.70
2022-09-12T11:25:05.583Z,1.80
2022-09-12T11:27:42.601Z,1.60
2022-09-12T11:30:16.501Z,1.80
2022-09-12T11:33:29.716Z,2.00
2022-09-12T11:35:58.029Z,1.80
2022-09-12T11:39:04.160Z,1.70
2022-09-12T11:41:37.760Z,1.50
2022-09-12T11:44:29.795Z,1.70
2022-09-12T11:46:58.588Z,1.50
2022-09-12T11:49:36.995Z,1.60
2022-09-12T11:52:22.887Z,1.60
2022-09-12T11:55:06.016Z,1.60
2022-09-12T11:57:50.093Z,1.60
2022-09-12T12:00:21.815Z,1.60
2022-09-12T12:02:53.066Z,1.60
2022-09-12T12:05:26.736Z,1.60
2022-09-12T12:07:57.975Z,1.30
2022-09-12T12:10:36.425Z,1.40
2022-09-12T12:13:30.847Z,1.70
2022-09-12T12:16:07.309Z,1.60
2022-09-12T12:18:40.383Z,1.80
2022-09-12T12:21:30.050Z,1.70
2022-09-12T12:24:10.013Z,1.80
2022-09-12T12:26:40.945Z,1.60
2022-09-12T12:29:22.008Z,1.40
2022-09-12T12:32:02.275Z,1.60
2022-09-12T12:34:36.597Z,1.70
2022-09-12T12:37:29.783Z,1.60
2022-09-12T12:40:10.493Z,1.60
2022-09-12T12:42:38.335Z,1.60
2022-09-12T12:45:09.019Z,1.60
2022-09-12T12:47:40.076Z,1.70
2022-09-12T12:50:10.692Z,1.40
2022-09-12T12:52:56.786Z,1.60
2022-09-12T12:55:33.565Z,1.50
2022-09-12T12:58:04.376Z,1.80
2022-09-12T13:00:39.961Z,1.50
2022-09-12T13:03:30.833Z,1.70
2022-09-12T13:06:09.076Z,1.50
2022-09-12T13:08:43.825Z,1.40
2022-09-12T13:11:17.005Z,1.70
2022-09-12T13:13:57.239Z,1.60
2022-09-12T13:16:32.377Z,1.50
2022-09-12T13:19:14.915Z,1.50
2022-09-12T13:21:56.522Z,1.80
2022-09-12T13:24:24.583Z,1.60
2022-09-12T13:26:53.848Z,2.00
2022-09-12T13:29:24.220Z,1.60
2022-09-12T13:32:01.357Z,1.60
2022-09-12T13:34:33.349Z,1.50
2022-09-12T13:37:32.114Z,2.20
2022-09-12T13:40:06.047Z,1.80
2022-09-12T13:42:45.179Z,2.60
2022-09-12T13:45:37.608Z,1.80
2022-09-12T13:48:10.330Z,1.40
2022-09-12T13:51:06.115Z,1.60
2022-09-12T13:53:46.358Z,1.60
2022-09-12T13:56:19.341Z,1.50
2022-09-12T13:58:56.925Z,1.70
2022-09-12T14:01:38.370Z,1.50
2022-09-12T14:04:42.750Z,1.70
2022-09-12T14:07:20.309Z,1.90
2022-09-12T14:10:20.160Z,1.60
2022-09-12T14:12:50.990Z,1.80
2022-09-12T14:15:29.095Z,2.10
2022-09-12T14:18:03.115Z,1.70
2022-09-12T14:20:36.965Z,1.50
2022-09-12T14:23:23.316Z,1.50
2022-09-12T14:25:52.281Z,1.60
2022-09-12T14:28:23.573Z,1.50
2022-09-12T14:31:10.698Z,1.40
2022-09-12T14:33:56.479Z,1.60
2022-09-12T14:36:34.127Z,1.80
2022-09-12T14:39:15.247Z,1.60
2022-09-12T14:41:44.229Z,1.60
2022-09-12T14:44:25.232Z,1.50
2022-09-12T14:46:53.348Z,2.10
2022-09-12T14:49:30.873Z,1.80
2022-09-12T14:52:02.645Z,1.50
2022-09-12T14:54:31.436Z,1.60
2022-09-12T14:57:03.447Z,2.10
2022-09-12T14:59:41.285Z,1.70
2022-09-12T15:02:35.467Z,1.80
2022-09-12T15:05:12.316Z,1.80
2022-09-12T15:07:57.618Z,1.60
2022-09-12T15:10:35.647Z,1.70
2022-09-12T15:13:25.929Z,2.00
2022-09-12T15:15:56.118Z,2.00
2022-09-12T15:18:26.609Z,1.90
2022-09-12T15:21:02.274Z,1.80
2022-09-12T15:23:31.207Z,1.80
2022-09-12T15:26:00.200Z,1.70
2022-09-12T15:28:30.131Z,1.90
2022-09-12T15:31:05.237Z,2.00
2022-09-12T15:33:33.437Z,2.00
2022-09-12T15:36:01.503Z,3.10
2022-09-12T15:38:29.981Z,2.30
2022-09-12T15:40:57.949Z,3.70
2022-09-12T15:43:26.431Z,3.40
2022-09-12T15:45:54.352Z,3.10
2022-09-12T15:48:22.608Z,2.60
2022-09-12T15:50:50.848Z,3.90
2022-09-12T15:53:18.922Z,2.50
2022-09-12T15:55:47.198Z,5.10
2022-09-12T15:58:15.113Z,4.30
2022-09-12T16:00:43.147Z,4.60
2022-09-12T16:03:26.979Z,3.20
2022-09-12T16:06:02.465Z,3.60
2022-09-12T16:08:31.677Z,3.20
2022-09-12T16:11:04.609Z,2.60
2022-09-12T16:13:33.802Z,3.50
2022-09-12T16:16:02.222Z,2.50
2022-09-12T16:18:30.257Z,4.10
2022-09-12T16:20:58.333Z,2.20
2022-09-12T16:23:26.401Z,2.20
2022-09-12T16:26:02.598Z,2.20
2022-09-12T16:28:33.394Z,2.20
2022-09-12T16:31:04.488Z,2.20
2022-09-12T16:33:33.637Z,2.20
2022-09-12T16:36:10.561Z,2.10
2022-09-12T16:38:51.183Z,2.30
2022-09-12T16:41:21.262Z,2.70
2022-09-12T16:43:49.225Z,2.40
2022-09-12T16:46:23.431Z,2.50
2022-09-12T16:48:57.618Z,2.40
2022-09-12T16:51:33.012Z,2.20
2022-09-12T16:54:00.930Z,2.50
2022-09-12T16:56:29.137Z,2.70
2022-09-12T16:58:57.001Z,2.40
2022-09-12T17:01:26.638Z,2.70
2022-09-12T17:03:56.883Z,2.00
2022-09-12T17:06:26.085Z,2.50
2022-09-12T17:08:57.839Z,2.70
2022-09-12T17:11:30.944Z,2.90
2022-09-12T17:14:04.897Z,2.80
2022-09-12T17:16:38.952Z,2.70
2022-09-12T17:19:08.177Z,2.60
2022-09-12T17:21:36.634Z,2.60
2022-09-12T17:24:04.909Z,2.40
2022-09-12T17:26:33.084Z,2.40
2022-09-12T17:29:01.872Z,2.60
2022-09-12T17:31:30.075Z,2.40
2022-09-12T17:33:59.656Z,2.50
2022-09-12T17:36:28.954Z,3.00
2022-09-12T17:38:57.106Z,2.90
2022-09-12T17:41:28.666Z,2.90
2022-09-12T17:43:58.494Z,2.50
2022-09-12T17:46:32.997Z,3.10
2022-09-12T17:49:01.910Z,2.40
2022-09-12T17:51:31.536Z,3.20
2022-09-12T17:54:12.259Z,3.20
2022-09-12T17:56:40.766Z,2.30
2022-09-12T17:59:15.090Z,2.60
2022-09-12T18:02:02.189Z,2.60
2022-09-12T18:04:30.890Z,2.40
2022-09-12T18:07:00.621Z,2.70
2022-09-12T18:09:29.284Z,2.40
2022-09-12T18:11:57.766Z,2.20
2022-09-12T18:14:28.808Z,2.90
2022-09-12T18:16:57.391Z,3.10
2022-09-12T18:19:25.665Z,2.60
2022-09-12T18:21:57.311Z,2.60
2022-09-12T18:24:25.500Z,2.70
2022-09-12T18:26:56.743Z,2.60
2022-09-12T18:29:27.800Z,2.90
2022-09-12T18:31:56.191Z,2.40
2022-09-12T18:34:24.095Z,2.60
2022-09-12T18:36:55.039Z,2.80
2022-09-12T18:39:27.490Z,2.80
2022-09-12T18:41:56.337Z,3.00
2022-09-12T18:44:24.409Z,2.80
2022-09-12T18:46:52.890Z,2.80
2022-09-12T18:49:21.034Z,3.20
2022-09-12T18:51:49.032Z,3.10
2022-09-12T18:54:18.045Z,2.80
2022-09-12T18:56:46.100Z,3.10
2022-09-12T18:59:15.036Z,2.80
2022-09-12T19:01:44.270Z,2.80
2022-09-12T19:04:14.612Z,2.80
2022-09-12T19:06:45.409Z,5.80
2022-09-12T19:09:15.775Z,5.70
2022-09-12T19:11:50.027Z,4.50
2022-09-12T19:14:23.902Z,4.20
2022-09-12T19:16:52.485Z,2.80
2022-09-12T19:19:21.411Z,3.10
2022-09-12T19:21:49.449Z,4.60
2022-09-12T19:24:18.029Z,3.10
2022-09-12T19:26:46.277Z,3.70
2022-09-12T19:29:16.681Z,2.30
2022-09-12T19:31:45.089Z,4.00
2022-09-12T19:34:13.905Z,2.80
2022-09-12T19:36:46.653Z,2.60
2022-09-12T19:39:17.761Z,2.60
2022-09-12T19:41:46.191Z,2.80
2022-09-12T19:44:14.487Z,2.60
2022-09-12T19:46:42.709Z,2.80
2022-09-12T19:49:12.506Z,3.10
2022-09-12T19:51:40.742Z,2.90
2022-09-12T19:54:09.330Z,3.10
2022-09-12T19:56:37.298Z,2.90
2022-09-12T19:59:05.881Z,5.40
2022-09-12T20:01:34.956Z,4.50
2022-09-12T20:04:03.871Z,3.90
2022-09-12T20:06:31.938Z,4.50
2022-09-12T20:09:00.040Z,3.20
2022-09-12T20:11:27.997Z,8.10
2022-09-12T20:13:55.926Z,4.90
2022-09-12T20:16:29.039Z,4.10
2022-09-12T20:19:00.901Z,3.50
2022-09-12T20:21:36.010Z,2.50
2022-09-12T20:24:12.605Z,3.00
2022-09-12T20:26:41.600Z,3.20
2022-09-12T20:29:10.286Z,3.00
2022-09-12T20:31:40.415Z,3.40
2022-09-12T20:34:14.647Z,3.10
2022-09-12T20:36:42.592Z,3.30
2022-09-12T20:39:16.703Z,3.60
2022-09-12T20:41:45.084Z,3.60
2022-09-12T20:44:13.463Z,3.60
2022-09-12T20:46:41.734Z,3.70
2022-09-12T20:49:10.122Z,4.10
2022-09-12T20:51:38.998Z,4.10
2022-09-12T20:54:07.600Z,3.60
2022-09-12T20:56:37.302Z,4.10
2022-09-12T20:59:05.990Z,4.60
2022-09-12T21:01:34.378Z,4.60
2022-09-12T21:04:03.059Z,5.00
2022-09-12T21:06:31.755Z,4.90
2022-09-12T21:09:00.812Z,6.10
2022-09-12T21:11:29.366Z,5.50
2022-09-12T21:13:58.317Z,4.60
2022-09-12T21:16:26.745Z,4.20
2022-09-12T21:18:57.432Z,3.90
2022-09-12T21:21:26.421Z,3.70
2022-09-12T21:23:58.482Z,3.10
2022-09-12T21:26:26.864Z,3.60
2022-09-12T21:28:55.016Z,3.30
2022-09-12T21:31:24.002Z,3.70
2022-09-12T21:33:52.310Z,3.20
2022-09-12T21:36:20.377Z,3.70
2022-09-12T21:38:48.453Z,3.50
2022-09-12T21:41:17.341Z,3.20
2022-09-12T21:43:45.574Z,3.20
2022-09-12T21:46:14.055Z,3.30
2022-09-12T21:48:43.603Z,3.30
2022-09-12T21:51:11.778Z,3.00
2022-09-12T21:53:39.852Z,2.90
2022-09-12T21:56:09.072Z,3.30
2022-09-12T21:58:38.237Z,3.50
2022-09-12T22:01:09.502Z,3.30
2022-09-12T22:03:37.650Z,3.30
2022-09-12T22:06:07.169Z,3.20
2022-09-12T22:08:37.507Z,3.30
2022-09-12T22:11:09.387Z,3.10
2022-09-12T22:13:42.054Z,3.00
2022-09-12T22:16:10.746Z,3.30
2022-09-12T22:18:38.793Z,3.00
2022-09-12T22:21:13.127Z,3.00
2022-09-12T22:24:00.135Z,2.90
2022-09-12T22:26:29.259Z,2.80
2022-09-12T22:28:57.192Z,3.00
2022-09-12T22:31:27.216Z,3.00
2022-09-12T22:33:57.242Z,3.00
2022-09-12T22:36:30.495Z,2.40
2022-09-12T22:38:59.840Z,2.60
2022-09-12T22:41:28.580Z,2.80
2022-09-12T22:43:57.385Z,2.70
2022-09-12T22:46:26.265Z,2.70
2022-09-12T22:48:55.768Z,2.60
2022-09-12T22:51:24.300Z,2.90
2022-09-12T22:53:52.764Z,2.70
2022-09-12T22:56:21.347Z,2.90
2022-09-12T22:58:49.827Z,3.10
2022-09-12T23:01:18.835Z,2.90
2022-09-12T23:03:47.104Z,2.80
2022-09-12T23:06:15.268Z,3.00
2022-09-12T23:08:43.443Z,2.40
2022-09-12T23:11:14.224Z,2.80
2022-09-12T23:13:44.976Z,2.80
2022-09-12T23:16:25.426Z,2.60
2022-09-12T23:18:53.648Z,2.50
2022-09-12T23:21:22.260Z,2.80
2022-09-12T23:23:50.830Z,2.90
2022-09-12T23:26:21.879Z,2.40
2022-09-12T23:28:53.928Z,2.50
2022-09-12T23:31:24.068Z,2.80
2022-09-12T23:33:56.917Z,2.70
2022-09-12T23:36:26.438Z,2.80
2022-09-12T23:38:55.226Z,2.70
2022-09-12T23:41:24.528Z,3.00
2022-09-12T23:43:52.854Z,3.00
2022-09-12T23:46:21.484Z,2.80
2022-09-12T23:48:49.670Z,2.70
2022-09-12T23:51:17.943Z,2.60
2022-09-12T23:53:45.906Z,2.70
2022-09-12T23:56:13.875Z,2.90
2022-09-12T23:58:41.979Z,2.60
